Nortonville, Kansas
Current Conditions -  °F | °C
As of 6:09 AM on Saturday 25 Oct 2014 (Local Time) from KLWC Reporting Station
Moderate Fog Moderate Fog  
Wind Chill: 50°   Ceiling: 100
Heat Index: 50°   Visibility: 0.25mi
Dew Point: 49°   Wind: 3mph
Humidity: 96%   Direction: 320°NW
Pressure: 30.04"   Gusts: NA
Location:  39.42°N, 95.33°W
Report Text: KLWC 251109Z AUTO 32003KT 1/4SM FG VV001 10/09 A3004 RMK AO2 T01000094
Loading
Personal Weather Stations






























Interactive Weather Map New forecast layout! Learn more

10-Day Weather Forecast

Advertisements
Track Severe Weather on mobile